Terminal Aerodrome Forecast
Issued by NWS

Home | Current Version | Previous Version | Graphics & Text | Print | Product List | Glossary On
Versions: 1 2 3 4 5 6 7 8 9 10 11 12 13 14
000
FTUS43 KOAX 171100
TAFCDR
TAF
KCDR 171124Z 1712/1812 VRB05KT P6SM SCT150
     FM171800 12010KT P6SM SCT120
     FM180300 16008KT P6SM FEW150=

USA.gov is the U.S. government's official web portal to all federal, state and local government web resources and services.